sensor_id;sensor_type;location;lat;lon;timestamp;P1;durP1;ratioP1;P2;durP2;ratioP2
67140;SDS011;54058;52.010;5.546;2022-09-09T00:01:54;1.35;;;1.00;;
67140;SDS011;54058;52.010;5.546;2022-09-09T00:04:29;1.58;;;1.27;;
67140;SDS011;54058;52.010;5.546;2022-09-09T00:07:01;1.40;;;1.10;;
67140;SDS011;54058;52.010;5.546;2022-09-09T00:09:29;4.93;;;1.20;;
67140;SDS011;54058;52.010;5.546;2022-09-09T00:12:08;3.28;;;1.80;;
67140;SDS011;54058;52.010;5.546;2022-09-09T00:20:19;2.45;;;1.30;;
67140;SDS011;54058;52.010;5.546;2022-09-09T00:23:12;3.63;;;1.40;;
67140;SDS011;54058;52.010;5.546;2022-09-09T00:26:02;2.75;;;1.88;;
67140;SDS011;54058;52.010;5.546;2022-09-09T00:28:51;2.33;;;1.58;;
67140;SDS011;54058;52.010;5.546;2022-09-09T00:31:26;6.30;;;1.75;;
67140;SDS011;54058;52.010;5.546;2022-09-09T00:33:54;3.13;;;1.92;;
67140;SDS011;54058;52.010;5.546;2022-09-09T00:36:29;3.00;;;1.40;;
67140;SDS011;54058;52.010;5.546;2022-09-09T00:38:59;2.42;;;1.50;;
67140;SDS011;54058;52.010;5.546;2022-09-09T00:52:47;2.85;;;1.58;;
67140;SDS011;54058;52.010;5.546;2022-09-09T00:58:36;4.05;;;1.38;;
67140;SDS011;54058;52.010;5.546;2022-09-09T01:01:07;2.05;;;1.30;;
67140;SDS011;54058;52.010;5.546;2022-09-09T01:03:55;3.35;;;1.40;;
67140;SDS011;54058;52.010;5.546;2022-09-09T01:06:31;2.40;;;1.27;;
67140;SDS011;54058;52.010;5.546;2022-09-09T01:17:01;4.55;;;1.42;;
67140;SDS011;54058;52.010;5.546;2022-09-09T01:28:33;2.55;;;1.42;;
67140;SDS011;54058;52.010;5.546;2022-09-09T01:31:02;3.88;;;1.25;;
67140;SDS011;54058;52.010;5.546;2022-09-09T01:33:30;1.58;;;1.33;;
67140;SDS011;54058;52.010;5.546;2022-09-09T01:38:29;2.90;;;1.40;;
67140;SDS011;54058;52.010;5.546;2022-09-09T01:40:57;1.75;;;1.50;;
67140;SDS011;54058;52.010;5.546;2022-09-09T01:43:24;2.63;;;1.20;;
67140;SDS011;54058;52.010;5.546;2022-09-09T01:48:19;4.40;;;1.52;;
67140;SDS011;54058;52.010;5.546;2022-09-09T01:50:49;2.42;;;1.52;;
67140;SDS011;54058;52.010;5.546;2022-09-09T01:53:15;3.55;;;1.75;;
67140;SDS011;54058;52.010;5.546;2022-09-09T01:55:45;2.58;;;1.38;;
67140;SDS011;54058;52.010;5.546;2022-09-09T01:58:28;2.65;;;1.55;;
67140;SDS011;54058;52.010;5.546;2022-09-09T02:01:16;4.68;;;1.70;;
67140;SDS011;54058;52.010;5.546;2022-09-09T02:03:56;4.93;;;1.70;;
67140;SDS011;54058;52.010;5.546;2022-09-09T02:06:37;2.75;;;1.60;;
67140;SDS011;54058;52.010;5.546;2022-09-09T02:09:05;2.00;;;1.80;;
67140;SDS011;54058;52.010;5.546;2022-09-09T02:11:35;1.92;;;1.70;;
67140;SDS011;54058;52.010;5.546;2022-09-09T02:14:05;2.97;;;1.40;;
67140;SDS011;54058;52.010;5.546;2022-09-09T02:16:41;3.05;;;1.60;;
67140;SDS011;54058;52.010;5.546;2022-09-09T02:19:29;1.70;;;1.45;;
67140;SDS011;54058;52.010;5.546;2022-09-09T02:21:59;3.80;;;1.85;;
67140;SDS011;54058;52.010;5.546;2022-09-09T02:24:26;5.68;;;1.70;;
67140;SDS011;54058;52.010;5.546;2022-09-09T02:26:54;3.80;;;1.50;;
67140;SDS011;54058;52.010;5.546;2022-09-09T02:29:25;2.03;;;1.30;;
67140;SDS011;54058;52.010;5.546;2022-09-09T02:32:09;3.40;;;1.70;;
67140;SDS011;54058;52.010;5.546;2022-09-09T02:34:40;4.25;;;1.70;;
67140;SDS011;54058;52.010;5.546;2022-09-09T02:37:12;1.95;;;1.75;;
67140;SDS011;54058;52.010;5.546;2022-09-09T02:39:40;4.13;;;1.83;;
67140;SDS011;54058;52.010;5.546;2022-09-09T02:42:06;2.20;;;1.50;;
67140;SDS011;54058;52.010;5.546;2022-09-09T02:44:33;4.95;;;1.80;;
67140;SDS011;54058;52.010;5.546;2022-09-09T02:47:17;2.83;;;1.73;;
67140;SDS011;54058;52.010;5.546;2022-09-09T02:55:37;3.20;;;1.67;;
67140;SDS011;54058;52.010;5.546;2022-09-09T02:58:08;2.45;;;1.50;;
67140;SDS011;54058;52.010;5.546;2022-09-09T03:00:36;4.50;;;1.67;;
67140;SDS011;54058;52.010;5.546;2022-09-09T03:03:04;2.00;;;1.88;;
67140;SDS011;54058;52.010;5.546;2022-09-09T03:05:31;5.53;;;1.42;;
67140;SDS011;54058;52.010;5.546;2022-09-09T03:07:57;3.47;;;1.60;;
67140;SDS011;54058;52.010;5.546;2022-09-09T03:10:24;5.22;;;2.03;;
67140;SDS011;54058;52.010;5.546;2022-09-09T03:12:49;3.90;;;1.90;;
67140;SDS011;54058;52.010;5.546;2022-09-09T03:15:15;3.60;;;1.70;;
67140;SDS011;54058;52.010;5.546;2022-09-09T03:17:41;3.30;;;2.13;;
67140;SDS011;54058;52.010;5.546;2022-09-09T03:20:07;2.67;;;1.80;;
67140;SDS011;54058;52.010;5.546;2022-09-09T03:22:33;9.95;;;1.92;;
67140;SDS011;54058;52.010;5.546;2022-09-09T03:24:59;7.03;;;1.75;;
67140;SDS011;54058;52.010;5.546;2022-09-09T03:27:25;2.13;;;1.75;;
67140;SDS011;54058;52.010;5.546;2022-09-09T03:29:51;4.35;;;1.95;;
67140;SDS011;54058;52.010;5.546;2022-09-09T03:32:17;5.45;;;1.90;;
67140;SDS011;54058;52.010;5.546;2022-09-09T03:34:43;2.88;;;1.63;;
67140;SDS011;54058;52.010;5.546;2022-09-09T03:37:09;3.03;;;1.65;;
67140;SDS011;54058;52.010;5.546;2022-09-09T03:39:35;2.55;;;1.40;;
67140;SDS011;54058;52.010;5.546;2022-09-09T03:42:01;2.25;;;1.60;;
67140;SDS011;54058;52.010;5.546;2022-09-09T03:44:29;1.83;;;1.65;;
67140;SDS011;54058;52.010;5.546;2022-09-09T03:46:55;2.20;;;1.70;;
67140;SDS011;54058;52.010;5.546;2022-09-09T03:49:21;5.82;;;1.50;;
67140;SDS011;54058;52.010;5.546;2022-09-09T03:51:47;2.35;;;1.33;;
67140;SDS011;54058;52.010;5.546;2022-09-09T03:54:13;5.30;;;1.58;;
67140;SDS011;54058;52.010;5.546;2022-09-09T03:56:39;6.00;;;1.55;;
67140;SDS011;54058;52.010;5.546;2022-09-09T03:59:06;2.10;;;1.50;;
67140;SDS011;54058;52.010;5.546;2022-09-09T04:03:59;2.47;;;1.60;;
67140;SDS011;54058;52.010;5.546;2022-09-09T04:06:27;1.98;;;1.60;;
67140;SDS011;54058;52.010;5.546;2022-09-09T04:08:53;7.00;;;1.92;;
67140;SDS011;54058;52.010;5.546;2022-09-09T04:11:20;3.78;;;1.60;;
67140;SDS011;54058;52.010;5.546;2022-09-09T04:13:45;2.40;;;1.33;;
67140;SDS011;54058;52.010;5.546;2022-09-09T04:16:14;5.60;;;1.88;;
67140;SDS011;54058;52.010;5.546;2022-09-09T04:18:40;4.15;;;1.65;;
67140;SDS011;54058;52.010;5.546;2022-09-09T04:21:06;2.03;;;1.63;;
67140;SDS011;54058;52.010;5.546;2022-09-09T04:23:33;8.63;;;2.15;;
67140;SDS011;54058;52.010;5.546;2022-09-09T04:26:00;2.83;;;1.52;;
67140;SDS011;54058;52.010;5.546;2022-09-09T04:28:29;8.07;;;2.17;;
67140;SDS011;54058;52.010;5.546;2022-09-09T04:30:56;4.50;;;1.55;;
67140;SDS011;54058;52.010;5.546;2022-09-09T04:33:28;3.35;;;1.83;;
67140;SDS011;54058;52.010;5.546;2022-09-09T04:35:54;1.77;;;1.60;;
67140;SDS011;54058;52.010;5.546;2022-09-09T04:38:20;3.50;;;1.75;;
67140;SDS011;54058;52.010;5.546;2022-09-09T04:40:48;6.55;;;1.90;;
67140;SDS011;54058;52.010;5.546;2022-09-09T04:43:14;8.82;;;2.00;;
67140;SDS011;54058;52.010;5.546;2022-09-09T04:45:41;4.53;;;1.50;;
67140;SDS011;54058;52.010;5.546;2022-09-09T04:48:07;6.15;;;1.73;;
67140;SDS011;54058;52.010;5.546;2022-09-09T04:50:34;3.17;;;1.67;;
67140;SDS011;54058;52.010;5.546;2022-09-09T04:53:03;4.10;;;1.90;;
67140;SDS011;54058;52.010;5.546;2022-09-09T04:55:30;2.70;;;1.40;;
67140;SDS011;54058;52.010;5.546;2022-09-09T04:57:56;8.43;;;2.15;;
67140;SDS011;54058;52.010;5.546;2022-09-09T05:00:25;2.38;;;1.70;;
67140;SDS011;54058;52.010;5.546;2022-09-09T05:02:50;4.95;;;1.48;;
67140;SDS011;54058;52.010;5.546;2022-09-09T05:05:16;5.55;;;1.90;;
67140;SDS011;54058;52.010;5.546;2022-09-09T05:07:43;6.38;;;1.77;;
67140;SDS011;54058;52.010;5.546;2022-09-09T05:10:09;8.15;;;2.08;;
67140;SDS011;54058;52.010;5.546;2022-09-09T05:12:34;8.98;;;1.42;;
67140;SDS011;54058;52.010;5.546;2022-09-09T05:15:00;5.25;;;1.42;;
67140;SDS011;54058;52.010;5.546;2022-09-09T05:17:26;3.45;;;1.85;;
67140;SDS011;54058;52.010;5.546;2022-09-09T05:19:52;2.97;;;1.50;;
67140;SDS011;54058;52.010;5.546;2022-09-09T05:22:21;6.68;;;1.63;;
67140;SDS011;54058;52.010;5.546;2022-09-09T05:24:48;6.72;;;2.00;;
67140;SDS011;54058;52.010;5.546;2022-09-09T05:27:16;10.38;;;1.98;;
67140;SDS011;54058;52.010;5.546;2022-09-09T05:29:44;4.03;;;1.48;;
67140;SDS011;54058;52.010;5.546;2022-09-09T05:32:11;4.25;;;1.67;;
67140;SDS011;54058;52.010;5.546;2022-09-09T05:34:38;5.60;;;1.92;;
67140;SDS011;54058;52.010;5.546;2022-09-09T05:37:04;5.15;;;1.90;;
67140;SDS011;54058;52.010;5.546;2022-09-09T05:39:29;3.13;;;1.40;;
67140;SDS011;54058;52.010;5.546;2022-09-09T05:41:55;3.55;;;1.77;;
67140;SDS011;54058;52.010;5.546;2022-09-09T05:44:21;4.85;;;1.52;;
67140;SDS011;54058;52.010;5.546;2022-09-09T05:46:48;7.75;;;1.33;;
67140;SDS011;54058;52.010;5.546;2022-09-09T05:49:14;5.68;;;1.55;;
67140;SDS011;54058;52.010;5.546;2022-09-09T05:51:40;6.93;;;1.40;;
67140;SDS011;54058;52.010;5.546;2022-09-09T05:56:33;8.23;;;1.60;;
67140;SDS011;54058;52.010;5.546;2022-09-09T05:58:59;8.63;;;1.88;;
67140;SDS011;54058;52.010;5.546;2022-09-09T06:01:27;6.22;;;2.08;;
67140;SDS011;54058;52.010;5.546;2022-09-09T06:03:55;6.40;;;1.52;;
67140;SDS011;54058;52.010;5.546;2022-09-09T06:06:23;7.13;;;1.83;;
67140;SDS011;54058;52.010;5.546;2022-09-09T06:08:51;7.00;;;1.90;;
67140;SDS011;54058;52.010;5.546;2022-09-09T06:11:19;6.22;;;1.40;;
67140;SDS011;54058;52.010;5.546;2022-09-09T06:13:46;4.25;;;1.65;;
67140;SDS011;54058;52.010;5.546;2022-09-09T06:16:16;4.05;;;1.83;;
67140;SDS011;54058;52.010;5.546;2022-09-09T06:18:43;5.90;;;1.30;;
67140;SDS011;54058;52.010;5.546;2022-09-09T06:21:11;7.77;;;1.60;;
67140;SDS011;54058;52.010;5.546;2022-09-09T06:23:46;10.25;;;1.73;;
67140;SDS011;54058;52.010;5.546;2022-09-09T06:28:39;8.60;;;1.73;;
67140;SDS011;54058;52.010;5.546;2022-09-09T06:31:08;7.93;;;1.77;;
67140;SDS011;54058;52.010;5.546;2022-09-09T06:33:36;10.48;;;2.47;;
67140;SDS011;54058;52.010;5.546;2022-09-09T06:36:39;12.82;;;2.45;;
67140;SDS011;54058;52.010;5.546;2022-09-09T06:38:59;4.43;;;1.75;;
67140;SDS011;54058;52.010;5.546;2022-09-09T06:41:26;9.07;;;2.10;;
67140;SDS011;54058;52.010;5.546;2022-09-09T06:43:54;15.15;;;2.53;;
67140;SDS011;54058;52.010;5.546;2022-09-09T06:46:23;5.25;;;1.80;;
67140;SDS011;54058;52.010;5.546;2022-09-09T06:48:55;10.57;;;2.10;;
67140;SDS011;54058;52.010;5.546;2022-09-09T06:51:22;14.13;;;2.15;;
67140;SDS011;54058;52.010;5.546;2022-09-09T06:53:52;14.75;;;3.00;;
67140;SDS011;54058;52.010;5.546;2022-09-09T06:56:21;7.53;;;2.10;;
67140;SDS011;54058;52.010;5.546;2022-09-09T06:58:48;7.85;;;2.28;;
67140;SDS011;54058;52.010;5.546;2022-09-09T07:01:15;8.68;;;2.53;;
67140;SDS011;54058;52.010;5.546;2022-09-09T07:03:42;12.98;;;2.20;;
67140;SDS011;54058;52.010;5.546;2022-09-09T07:06:14;6.43;;;2.00;;
67140;SDS011;54058;52.010;5.546;2022-09-09T07:08:42;6.82;;;1.90;;
67140;SDS011;54058;52.010;5.546;2022-09-09T07:11:08;7.80;;;1.85;;
67140;SDS011;54058;52.010;5.546;2022-09-09T07:13:34;6.43;;;1.95;;
67140;SDS011;54058;52.010;5.546;2022-09-09T07:16:08;5.53;;;2.03;;
67140;SDS011;54058;52.010;5.546;2022-09-09T07:18:35;8.75;;;2.08;;
67140;SDS011;54058;52.010;5.546;2022-09-09T07:21:01;12.55;;;1.90;;
67140;SDS011;54058;52.010;5.546;2022-09-09T07:23:28;13.15;;;2.08;;
67140;SDS011;54058;52.010;5.546;2022-09-09T07:25:53;9.57;;;2.00;;
67140;SDS011;54058;52.010;5.546;2022-09-09T07:28:19;7.35;;;1.67;;
67140;SDS011;54058;52.010;5.546;2022-09-09T07:30:59;7.82;;;2.50;;
67140;SDS011;54058;52.010;5.546;2022-09-09T07:33:29;6.03;;;1.80;;
67140;SDS011;54058;52.010;5.546;2022-09-09T07:36:08;8.20;;;2.05;;
67140;SDS011;54058;52.010;5.546;2022-09-09T07:38:52;10.02;;;1.85;;
67140;SDS011;54058;52.010;5.546;2022-09-09T07:41:23;7.18;;;1.45;;
67140;SDS011;54058;52.010;5.546;2022-09-09T07:43:51;9.50;;;2.20;;
67140;SDS011;54058;52.010;5.546;2022-09-09T07:46:19;8.95;;;2.03;;
67140;SDS011;54058;52.010;5.546;2022-09-09T07:48:51;8.15;;;1.95;;
67140;SDS011;54058;52.010;5.546;2022-09-09T07:51:19;8.35;;;1.73;;
67140;SDS011;54058;52.010;5.546;2022-09-09T07:53:47;10.30;;;2.20;;
67140;SDS011;54058;52.010;5.546;2022-09-09T07:56:16;9.85;;;2.05;;
67140;SDS011;54058;52.010;5.546;2022-09-09T07:58:46;9.68;;;1.88;;
67140;SDS011;54058;52.010;5.546;2022-09-09T08:01:14;6.35;;;1.73;;
67140;SDS011;54058;52.010;5.546;2022-09-09T08:03:42;12.52;;;1.67;;
67140;SDS011;54058;52.010;5.546;2022-09-09T08:06:09;8.68;;;2.25;;
67140;SDS011;54058;52.010;5.546;2022-09-09T08:08:37;10.27;;;1.83;;
67140;SDS011;54058;52.010;5.546;2022-09-09T08:11:09;6.82;;;1.65;;
67140;SDS011;54058;52.010;5.546;2022-09-09T08:13:40;5.60;;;1.70;;
67140;SDS011;54058;52.010;5.546;2022-09-09T08:18:37;11.88;;;1.85;;
67140;SDS011;54058;52.010;5.546;2022-09-09T08:21:11;8.70;;;1.85;;
67140;SDS011;54058;52.010;5.546;2022-09-09T08:23:40;7.22;;;1.40;;
67140;SDS011;54058;52.010;5.546;2022-09-09T08:26:10;5.72;;;1.50;;
67140;SDS011;54058;52.010;5.546;2022-09-09T08:28:37;11.15;;;1.27;;
67140;SDS011;54058;52.010;5.546;2022-09-09T08:31:08;7.72;;;1.45;;
67140;SDS011;54058;52.010;5.546;2022-09-09T08:36:09;8.57;;;2.00;;
67140;SDS011;54058;52.010;5.546;2022-09-09T08:38:37;12.23;;;2.05;;
67140;SDS011;54058;52.010;5.546;2022-09-09T08:44:08;9.23;;;2.05;;
67140;SDS011;54058;52.010;5.546;2022-09-09T08:46:46;10.60;;;2.40;;
67140;SDS011;54058;52.010;5.546;2022-09-09T08:52:17;10.60;;;2.50;;
67140;SDS011;54058;52.010;5.546;2022-09-09T08:54:48;15.77;;;2.70;;
67140;SDS011;54058;52.010;5.546;2022-09-09T08:57:18;8.63;;;2.40;;
67140;SDS011;54058;52.010;5.546;2022-09-09T08:59:51;10.45;;;2.10;;
67140;SDS011;54058;52.010;5.546;2022-09-09T09:07:49;8.02;;;2.90;;
67140;SDS011;54058;52.010;5.546;2022-09-09T09:16:27;7.15;;;1.85;;
67140;SDS011;54058;52.010;5.546;2022-09-09T09:18:59;12.20;;;2.03;;
67140;SDS011;54058;52.010;5.546;2022-09-09T09:24:19;12.18;;;2.53;;
67140;SDS011;54058;52.010;5.546;2022-09-09T09:26:47;6.63;;;1.52;;
67140;SDS011;54058;52.010;5.546;2022-09-09T09:29:14;6.23;;;1.60;;
67140;SDS011;54058;52.010;5.546;2022-09-09T09:31:42;12.60;;;2.13;;
67140;SDS011;54058;52.010;5.546;2022-09-09T09:34:28;12.55;;;2.00;;
67140;SDS011;54058;52.010;5.546;2022-09-09T09:36:54;11.97;;;1.77;;
67140;SDS011;54058;52.010;5.546;2022-09-09T09:39:23;8.95;;;1.75;;
67140;SDS011;54058;52.010;5.546;2022-09-09T09:41:50;7.47;;;1.90;;
67140;SDS011;54058;52.010;5.546;2022-09-09T09:44:22;10.17;;;1.53;;
67140;SDS011;54058;52.010;5.546;2022-09-09T09:49:54;9.73;;;1.58;;
67140;SDS011;54058;52.010;5.546;2022-09-09T09:52:24;10.57;;;2.25;;
67140;SDS011;54058;52.010;5.546;2022-09-09T09:54:52;10.68;;;1.90;;
67140;SDS011;54058;52.010;5.546;2022-09-09T09:57:21;8.98;;;1.58;;
67140;SDS011;54058;52.010;5.546;2022-09-09T09:59:59;8.35;;;1.80;;
67140;SDS011;54058;52.010;5.546;2022-09-09T10:02:39;5.25;;;1.45;;
67140;SDS011;54058;52.010;5.546;2022-09-09T10:07:45;12.52;;;1.98;;
67140;SDS011;54058;52.010;5.546;2022-09-09T10:10:13;10.13;;;1.77;;
67140;SDS011;54058;52.010;5.546;2022-09-09T10:12:54;8.07;;;2.08;;
67140;SDS011;54058;52.010;5.546;2022-09-09T10:15:32;9.15;;;1.65;;
67140;SDS011;54058;52.010;5.546;2022-09-09T10:35:11;9.45;;;1.85;;
67140;SDS011;54058;52.010;5.546;2022-09-09T10:40:33;4.93;;;1.58;;
67140;SDS011;54058;52.010;5.546;2022-09-09T10:43:04;8.82;;;1.60;;
67140;SDS011;54058;52.010;5.546;2022-09-09T10:48:30;7.57;;;1.85;;
67140;SDS011;54058;52.010;5.546;2022-09-09T10:51:11;9.68;;;1.75;;
67140;SDS011;54058;52.010;5.546;2022-09-09T10:56:30;7.28;;;1.52;;
67140;SDS011;54058;52.010;5.546;2022-09-09T10:58:59;7.55;;;1.70;;
67140;SDS011;54058;52.010;5.546;2022-09-09T11:01:38;7.30;;;1.90;;
67140;SDS011;54058;52.010;5.546;2022-09-09T11:04:22;12.25;;;1.83;;
67140;SDS011;54058;52.010;5.546;2022-09-09T11:06:57;7.47;;;1.67;;
67140;SDS011;54058;52.010;5.546;2022-09-09T11:09:31;5.60;;;1.30;;
67140;SDS011;54058;52.010;5.546;2022-09-09T11:12:02;6.63;;;1.55;;
67140;SDS011;54058;52.010;5.546;2022-09-09T11:14:36;10.00;;;2.00;;
67140;SDS011;54058;52.010;5.546;2022-09-09T11:19:42;5.32;;;1.48;;
67140;SDS011;54058;52.010;5.546;2022-09-09T11:30:46;10.95;;;2.17;;
67140;SDS011;54058;52.010;5.546;2022-09-09T11:36:34;9.93;;;1.98;;
67140;SDS011;54058;52.010;5.546;2022-09-09T11:41:36;11.00;;;2.10;;
67140;SDS011;54058;52.010;5.546;2022-09-09T11:44:09;6.35;;;1.42;;
67140;SDS011;54058;52.010;5.546;2022-09-09T11:46:45;4.68;;;1.58;;
67140;SDS011;54058;52.010;5.546;2022-09-09T11:49:25;5.53;;;1.55;;
67140;SDS011;54058;52.010;5.546;2022-09-09T11:51:53;9.02;;;1.70;;
67140;SDS011;54058;52.010;5.546;2022-09-09T11:54:32;6.13;;;1.80;;
67140;SDS011;54058;52.010;5.546;2022-09-09T11:57:31;8.20;;;1.77;;
67140;SDS011;54058;52.010;5.546;2022-09-09T11:59:59;7.38;;;1.95;;
67140;SDS011;54058;52.010;5.546;2022-09-09T12:02:27;5.25;;;1.50;;
67140;SDS011;54058;52.010;5.546;2022-09-09T12:07:34;4.60;;;1.50;;
67140;SDS011;54058;52.010;5.546;2022-09-09T12:12:43;5.93;;;1.75;;
67140;SDS011;54058;52.010;5.546;2022-09-09T12:17:48;3.67;;;1.70;;
67140;SDS011;54058;52.010;5.546;2022-09-09T12:20:19;4.40;;;1.40;;
67140;SDS011;54058;52.010;5.546;2022-09-09T12:25:58;11.00;;;1.70;;
67140;SDS011;54058;52.010;5.546;2022-09-09T12:31:35;4.80;;;1.17;;
67140;SDS011;54058;52.010;5.546;2022-09-09T12:34:33;4.45;;;1.30;;
67140;SDS011;54058;52.010;5.546;2022-09-09T12:37:21;8.32;;;1.33;;
67140;SDS011;54058;52.010;5.546;2022-09-09T12:39:57;6.10;;;1.60;;
67140;SDS011;54058;52.010;5.546;2022-09-09T12:42:25;4.18;;;1.42;;
67140;SDS011;54058;52.010;5.546;2022-09-09T12:50:19;4.60;;;1.20;;
67140;SDS011;54058;52.010;5.546;2022-09-09T12:52:47;6.70;;;1.83;;
67140;SDS011;54058;52.010;5.546;2022-09-09T12:55:17;7.00;;;1.85;;
67140;SDS011;54058;52.010;5.546;2022-09-09T12:57:46;6.72;;;1.63;;
67140;SDS011;54058;52.010;5.546;2022-09-09T13:00:16;8.65;;;1.63;;
67140;SDS011;54058;52.010;5.546;2022-09-09T13:02:55;5.95;;;1.90;;
67140;SDS011;54058;52.010;5.546;2022-09-09T13:05:25;4.78;;;1.50;;
67140;SDS011;54058;52.010;5.546;2022-09-09T13:08:00;3.45;;;1.23;;
67140;SDS011;54058;52.010;5.546;2022-09-09T13:10:33;4.20;;;1.48;;
67140;SDS011;54058;52.010;5.546;2022-09-09T13:13:14;4.10;;;1.20;;
67140;SDS011;54058;52.010;5.546;2022-09-09T13:15:48;6.32;;;1.50;;
67140;SDS011;54058;52.010;5.546;2022-09-09T13:18:20;3.55;;;1.10;;
67140;SDS011;54058;52.010;5.546;2022-09-09T13:20:48;3.10;;;1.30;;
67140;SDS011;54058;52.010;5.546;2022-09-09T13:23:15;5.70;;;1.67;;
67140;SDS011;54058;52.010;5.546;2022-09-09T13:25:52;7.78;;;1.67;;
67140;SDS011;54058;52.010;5.546;2022-09-09T13:28:23;3.35;;;1.30;;
67140;SDS011;54058;52.010;5.546;2022-09-09T13:33:31;7.18;;;1.40;;
67140;SDS011;54058;52.010;5.546;2022-09-09T13:36:05;4.80;;;1.33;;
67140;SDS011;54058;52.010;5.546;2022-09-09T13:38:33;6.95;;;1.40;;
67140;SDS011;54058;52.010;5.546;2022-09-09T13:41:18;5.75;;;1.30;;
67140;SDS011;54058;52.010;5.546;2022-09-09T13:44:05;4.57;;;1.50;;
67140;SDS011;54058;52.010;5.546;2022-09-09T13:49:03;5.07;;;1.70;;
67140;SDS011;54058;52.010;5.546;2022-09-09T13:51:45;3.38;;;1.10;;
67140;SDS011;54058;52.010;5.546;2022-09-09T13:54:14;5.22;;;1.40;;
67140;SDS011;54058;52.010;5.546;2022-09-09T13:56:41;9.48;;;1.90;;
67140;SDS011;54058;52.010;5.546;2022-09-09T13:59:15;9.00;;;1.30;;
67140;SDS011;54058;52.010;5.546;2022-09-09T14:01:44;6.60;;;1.45;;
67140;SDS011;54058;52.010;5.546;2022-09-09T14:04:10;4.27;;;1.20;;
67140;SDS011;54058;52.010;5.546;2022-09-09T14:06:37;7.13;;;1.35;;
67140;SDS011;54058;52.010;5.546;2022-09-09T14:09:07;7.57;;;1.25;;
67140;SDS011;54058;52.010;5.546;2022-09-09T14:11:35;5.55;;;1.17;;
67140;SDS011;54058;52.010;5.546;2022-09-09T14:14:01;6.30;;;1.43;;
67140;SDS011;54058;52.010;5.546;2022-09-09T14:16:27;5.57;;;1.30;;
67140;SDS011;54058;52.010;5.546;2022-09-09T14:18:52;6.60;;;1.30;;
67140;SDS011;54058;52.010;5.546;2022-09-09T14:21:21;8.02;;;1.48;;
67140;SDS011;54058;52.010;5.546;2022-09-09T14:23:46;3.20;;;1.40;;
67140;SDS011;54058;52.010;5.546;2022-09-09T14:28:38;5.03;;;1.50;;
67140;SDS011;54058;52.010;5.546;2022-09-09T14:31:05;4.03;;;1.40;;
67140;SDS011;54058;52.010;5.546;2022-09-09T14:35:58;3.40;;;1.00;;
67140;SDS011;54058;52.010;5.546;2022-09-09T14:38:25;4.82;;;1.33;;
67140;SDS011;54058;52.010;5.546;2022-09-09T14:40:53;4.38;;;1.48;;
67140;SDS011;54058;52.010;5.546;2022-09-09T14:43:19;4.83;;;1.40;;
67140;SDS011;54058;52.010;5.546;2022-09-09T14:45:45;2.07;;;1.17;;
67140;SDS011;54058;52.010;5.546;2022-09-09T14:48:13;5.72;;;1.73;;
67140;SDS011;54058;52.010;5.546;2022-09-09T14:50:39;3.17;;;1.15;;
67140;SDS011;54058;52.010;5.546;2022-09-09T14:53:05;4.63;;;1.33;;
67140;SDS011;54058;52.010;5.546;2022-09-09T14:55:33;3.67;;;1.33;;
67140;SDS011;54058;52.010;5.546;2022-09-09T14:57:59;4.93;;;1.23;;
67140;SDS011;54058;52.010;5.546;2022-09-09T15:00:25;5.50;;;1.37;;
67140;SDS011;54058;52.010;5.546;2022-09-09T15:02:53;5.03;;;1.57;;
67140;SDS011;54058;52.010;5.546;2022-09-09T15:05:20;4.43;;;1.42;;
67140;SDS011;54058;52.010;5.546;2022-09-09T15:07:46;6.70;;;1.17;;
67140;SDS011;54058;52.010;5.546;2022-09-09T15:10:13;2.97;;;1.20;;
67140;SDS011;54058;52.010;5.546;2022-09-09T15:12:39;4.23;;;0.83;;
67140;SDS011;54058;52.010;5.546;2022-09-09T15:15:05;3.57;;;1.10;;
67140;SDS011;54058;52.010;5.546;2022-09-09T15:17:30;4.27;;;0.80;;
67140;SDS011;54058;52.010;5.546;2022-09-09T15:19:56;4.30;;;1.00;;
67140;SDS011;54058;52.010;5.546;2022-09-09T15:22:22;1.48;;;0.75;;
67140;SDS011;54058;52.010;5.546;2022-09-09T15:24:49;3.78;;;1.20;;
67140;SDS011;54058;52.010;5.546;2022-09-09T15:27:15;6.93;;;1.50;;
67140;SDS011;54058;52.010;5.546;2022-09-09T15:29:41;4.87;;;1.10;;
67140;SDS011;54058;52.010;5.546;2022-09-09T15:32:06;6.00;;;1.10;;
67140;SDS011;54058;52.010;5.546;2022-09-09T15:34:32;3.57;;;1.10;;
67140;SDS011;54058;52.010;5.546;2022-09-09T15:36:58;10.03;;;1.30;;
67140;SDS011;54058;52.010;5.546;2022-09-09T15:39:25;3.22;;;1.23;;
67140;SDS011;54058;52.010;5.546;2022-09-09T15:41:50;6.13;;;1.50;;
67140;SDS011;54058;52.010;5.546;2022-09-09T15:44:16;8.93;;;1.30;;
67140;SDS011;54058;52.010;5.546;2022-09-09T15:46:51;4.15;;;1.05;;
67140;SDS011;54058;52.010;5.546;2022-09-09T15:49:24;3.05;;;1.08;;
67140;SDS011;54058;52.010;5.546;2022-09-09T15:51:54;5.72;;;0.98;;
67140;SDS011;54058;52.010;5.546;2022-09-09T15:54:22;3.00;;;1.00;;
67140;SDS011;54058;52.010;5.546;2022-09-09T15:56:50;2.03;;;1.00;;
67140;SDS011;54058;52.010;5.546;2022-09-09T15:59:19;1.80;;;0.75;;
67140;SDS011;54058;52.010;5.546;2022-09-09T16:01:45;2.17;;;0.90;;
67140;SDS011;54058;52.010;5.546;2022-09-09T16:04:11;2.70;;;0.97;;
67140;SDS011;54058;52.010;5.546;2022-09-09T16:06:37;1.73;;;0.83;;
67140;SDS011;54058;52.010;5.546;2022-09-09T16:09:03;1.93;;;1.03;;
67140;SDS011;54058;52.010;5.546;2022-09-09T16:11:31;3.13;;;1.10;;
67140;SDS011;54058;52.010;5.546;2022-09-09T16:13:58;1.75;;;0.90;;
67140;SDS011;54058;52.010;5.546;2022-09-09T16:16:25;3.53;;;0.98;;
67140;SDS011;54058;52.010;5.546;2022-09-09T16:18:54;6.60;;;1.50;;
67140;SDS011;54058;52.010;5.546;2022-09-09T16:21:22;2.15;;;1.00;;
67140;SDS011;54058;52.010;5.546;2022-09-09T16:23:50;2.70;;;1.02;;
67140;SDS011;54058;52.010;5.546;2022-09-09T16:26:18;4.05;;;1.30;;
67140;SDS011;54058;52.010;5.546;2022-09-09T16:28:44;1.63;;;0.70;;
67140;SDS011;54058;52.010;5.546;2022-09-09T16:31:13;3.17;;;1.02;;
67140;SDS011;54058;52.010;5.546;2022-09-09T16:33:43;4.05;;;0.98;;
67140;SDS011;54058;52.010;5.546;2022-09-09T16:36:09;2.75;;;0.85;;
67140;SDS011;54058;52.010;5.546;2022-09-09T16:38:40;4.80;;;1.05;;
67140;SDS011;54058;52.010;5.546;2022-09-09T16:41:08;5.13;;;0.98;;
67140;SDS011;54058;52.010;5.546;2022-09-09T16:43:34;2.38;;;0.80;;
67140;SDS011;54058;52.010;5.546;2022-09-09T16:46:01;4.38;;;1.08;;
67140;SDS011;54058;52.010;5.546;2022-09-09T16:48:49;2.75;;;0.80;;
67140;SDS011;54058;52.010;5.546;2022-09-09T16:51:19;1.33;;;0.77;;
67140;SDS011;54058;52.010;5.546;2022-09-09T16:53:48;3.15;;;1.10;;
67140;SDS011;54058;52.010;5.546;2022-09-09T16:56:14;2.83;;;0.83;;
67140;SDS011;54058;52.010;5.546;2022-09-09T16:58:42;2.30;;;0.95;;
67140;SDS011;54058;52.010;5.546;2022-09-09T17:01:10;1.65;;;1.00;;
67140;SDS011;54058;52.010;5.546;2022-09-09T17:03:38;4.32;;;1.05;;
67140;SDS011;54058;52.010;5.546;2022-09-09T17:06:08;7.87;;;1.20;;
67140;SDS011;54058;52.010;5.546;2022-09-09T17:08:38;21.80;;;1.38;;
67140;SDS011;54058;52.010;5.546;2022-09-09T17:11:16;2.50;;;1.02;;
67140;SDS011;54058;52.010;5.546;2022-09-09T17:13:44;2.65;;;1.00;;
67140;SDS011;54058;52.010;5.546;2022-09-09T17:16:12;5.55;;;1.20;;
67140;SDS011;54058;52.010;5.546;2022-09-09T17:18:39;4.72;;;1.33;;
67140;SDS011;54058;52.010;5.546;2022-09-09T17:21:09;2.83;;;1.20;;
67140;SDS011;54058;52.010;5.546;2022-09-09T17:23:39;5.00;;;1.20;;
67140;SDS011;54058;52.010;5.546;2022-09-09T17:26:07;3.08;;;1.10;;
67140;SDS011;54058;52.010;5.546;2022-09-09T17:28:38;4.80;;;1.55;;
67140;SDS011;54058;52.010;5.546;2022-09-09T17:31:05;3.47;;;1.60;;
67140;SDS011;54058;52.010;5.546;2022-09-09T17:33:33;4.60;;;1.40;;
67140;SDS011;54058;52.010;5.546;2022-09-09T17:36:01;4.20;;;1.00;;
67140;SDS011;54058;52.010;5.546;2022-09-09T17:38:37;6.03;;;1.00;;
67140;SDS011;54058;52.010;5.546;2022-09-09T17:41:11;4.18;;;1.17;;